sensor_id;sensor_type;location;lat;lon;timestamp;temperature;humidity
25170;DHT22;13129;48.012;10.352;2023-02-14T04:30:43;-2.70;99.90
25170;DHT22;13129;48.012;10.352;2023-02-14T04:33:09;-2.70;99.90
25170;DHT22;13129;48.012;10.352;2023-02-14T04:35:35;-2.80;99.90
25170;DHT22;13129;48.012;10.352;2023-02-14T04:38:02;-2.80;99.90
25170;DHT22;13129;48.012;10.352;2023-02-14T04:40:28;-2.80;99.90
25170;DHT22;13129;48.012;10.352;2023-02-14T04:42:54;-2.80;99.90
25170;DHT22;13129;48.012;10.352;2023-02-14T04:45:20;-2.80;99.90
25170;DHT22;13129;48.012;10.352;2023-02-14T04:47:46;-2.80;99.90
25170;DHT22;13129;48.012;10.352;2023-02-14T04:50:12;-2.90;99.90
25170;DHT22;13129;48.012;10.352;2023-02-14T04:52:38;-2.80;99.90
25170;DHT22;13129;48.012;10.352;2023-02-14T04:55:04;-2.80;99.90
25170;DHT22;13129;48.012;10.352;2023-02-14T04:57:31;-2.90;99.90
25170;DHT22;13129;48.012;10.352;2023-02-14T04:59:56;-3.00;99.90
25170;DHT22;13129;48.012;10.352;2023-02-14T05:02:24;-3.00;99.90
25170;DHT22;13129;48.012;10.352;2023-02-14T05:04:49;-3.00;99.90
25170;DHT22;13129;48.012;10.352;2023-02-14T05:07:15;-3.00;99.90
25170;DHT22;13129;48.012;10.352;2023-02-14T05:09:41;-3.00;99.90
25170;DHT22;13129;48.012;10.352;2023-02-14T05:12:06;-3.00;99.90
25170;DHT22;13129;48.012;10.352;2023-02-14T05:14:32;-3.10;99.90
25170;DHT22;13129;48.012;10.352;2023-02-14T05:16:58;-3.10;99.90
25170;DHT22;13129;48.012;10.352;2023-02-14T05:19:24;-3.10;99.90
25170;DHT22;13129;48.012;10.352;2023-02-14T05:21:50;-3.10;99.90
25170;DHT22;13129;48.012;10.352;2023-02-14T05:24:16;-3.10;99.90
25170;DHT22;13129;48.012;10.352;2023-02-14T05:26:41;-3.20;99.90
25170;DHT22;13129;48.012;10.352;2023-02-14T05:29:07;-3.20;99.90
25170;DHT22;13129;48.012;10.352;2023-02-14T05:31:33;-3.20;99.90
25170;DHT22;13129;48.012;10.352;2023-02-14T05:33:59;-3.20;99.90
25170;DHT22;13129;48.012;10.352;2023-02-14T05:36:25;-3.20;99.90
25170;DHT22;13129;48.012;10.352;2023-02-14T05:38:50;-3.20;99.90
25170;DHT22;13129;48.012;10.352;2023-02-14T05:41:16;-3.20;99.90
25170;DHT22;13129;48.012;10.352;2023-02-14T05:43:42;-3.20;99.90
25170;DHT22;13129;48.012;10.352;2023-02-14T05:46:07;-3.20;99.90
25170;DHT22;13129;48.012;10.352;2023-02-14T05:48:33;-3.20;99.90
25170;DHT22;13129;48.012;10.352;2023-02-14T05:51:03;-3.20;99.90
25170;DHT22;13129;48.012;10.352;2023-02-14T05:53:29;-3.20;99.90
25170;DHT22;13129;48.012;10.352;2023-02-14T05:55:55;-3.20;99.90
25170;DHT22;13129;48.012;10.352;2023-02-14T05:58:20;-3.20;99.90
25170;DHT22;13129;48.012;10.352;2023-02-14T06:00:46;-3.30;99.90
25170;DHT22;13129;48.012;10.352;2023-02-14T06:03:11;-3.30;99.90
25170;DHT22;13129;48.012;10.352;2023-02-14T06:05:37;-3.30;99.90
25170;DHT22;13129;48.012;10.352;2023-02-14T06:08:03;-3.40;99.90
25170;DHT22;13129;48.012;10.352;2023-02-14T06:10:28;-3.50;99.90
25170;DHT22;13129;48.012;10.352;2023-02-14T06:12:54;-3.60;99.90
25170;DHT22;13129;48.012;10.352;2023-02-14T06:15:20;-3.60;99.90
25170;DHT22;13129;48.012;10.352;2023-02-14T06:17:53;-3.70;99.90
25170;DHT22;13129;48.012;10.352;2023-02-14T06:20:20;-3.70;99.90
25170;DHT22;13129;48.012;10.352;2023-02-14T06:22:46;-3.80;99.90
25170;DHT22;13129;48.012;10.352;2023-02-14T06:25:12;-3.90;99.90
25170;DHT22;13129;48.012;10.352;2023-02-14T06:27:38;-4.00;99.90
25170;DHT22;13129;48.012;10.352;2023-02-14T06:30:05;-4.10;99.90
25170;DHT22;13129;48.012;10.352;2023-02-14T06:32:31;-4.10;99.90
25170;DHT22;13129;48.012;10.352;2023-02-14T06:34:56;-4.20;99.90
25170;DHT22;13129;48.012;10.352;2023-02-14T06:37:22;-4.20;99.90
25170;DHT22;13129;48.012;10.352;2023-02-14T06:39:47;-4.30;99.90
25170;DHT22;13129;48.012;10.352;2023-02-14T06:42:13;-4.30;99.90
25170;DHT22;13129;48.012;10.352;2023-02-14T06:44:39;-4.20;99.90
25170;DHT22;13129;48.012;10.352;2023-02-14T06:47:04;-4.20;99.90
25170;DHT22;13129;48.012;10.352;2023-02-14T06:49:30;-4.10;99.90
25170;DHT22;13129;48.012;10.352;2023-02-14T06:51:56;-4.00;99.90
25170;DHT22;13129;48.012;10.352;2023-02-14T06:54:21;-3.90;99.90
25170;DHT22;13129;48.012;10.352;2023-02-14T06:56:47;-3.80;99.90
25170;DHT22;13129;48.012;10.352;2023-02-14T06:59:13;-3.70;99.90
25170;DHT22;13129;48.012;10.352;2023-02-14T07:01:38;-3.70;99.90
25170;DHT22;13129;48.012;10.352;2023-02-14T07:04:04;-3.60;99.90
25170;DHT22;13129;48.012;10.352;2023-02-14T07:06:30;-3.50;99.90
25170;DHT22;13129;48.012;10.352;2023-02-14T07:08:56;-3.30;99.90
25170;DHT22;13129;48.012;10.352;2023-02-14T07:11:22;-3.20;99.90
25170;DHT22;13129;48.012;10.352;2023-02-14T07:13:47;-3.20;99.90
25170;DHT22;13129;48.012;10.352;2023-02-14T07:16:13;-3.20;99.90
25170;DHT22;13129;48.012;10.352;2023-02-14T07:18:39;-3.20;99.90
25170;DHT22;13129;48.012;10.352;2023-02-14T07:21:04;-3.00;99.90
25170;DHT22;13129;48.012;10.352;2023-02-14T07:23:30;-2.90;99.90
25170;DHT22;13129;48.012;10.352;2023-02-14T07:25:57;-2.70;99.90
25170;DHT22;13129;48.012;10.352;2023-02-14T07:28:22;-2.60;99.90
25170;DHT22;13129;48.012;10.352;2023-02-14T07:30:48;-2.50;99.90
25170;DHT22;13129;48.012;10.352;2023-02-14T07:33:14;-2.30;99.90
25170;DHT22;13129;48.012;10.352;2023-02-14T07:35:39;-2.10;99.90
25170;DHT22;13129;48.012;10.352;2023-02-14T07:38:05;-2.00;99.90
25170;DHT22;13129;48.012;10.352;2023-02-14T07:40:30;-1.90;99.90
25170;DHT22;13129;48.012;10.352;2023-02-14T07:42:57;-1.90;99.90
25170;DHT22;13129;48.012;10.352;2023-02-14T07:45:23;-1.90;99.90
25170;DHT22;13129;48.012;10.352;2023-02-14T07:47:51;-1.80;99.90
25170;DHT22;13129;48.012;10.352;2023-02-14T07:50:17;-1.30;99.90
25170;DHT22;13129;48.012;10.352;2023-02-14T07:52:43;-1.10;99.90
25170;DHT22;13129;48.012;10.352;2023-02-14T07:55:09;-0.70;99.90
25170;DHT22;13129;48.012;10.352;2023-02-14T07:57:35;-0.40;99.90
25170;DHT22;13129;48.012;10.352;2023-02-14T08:00:01;0.10;99.90
25170;DHT22;13129;48.012;10.352;2023-02-14T08:02:28;0.10;99.90
25170;DHT22;13129;48.012;10.352;2023-02-14T08:04:53;0.20;99.90
25170;DHT22;13129;48.012;10.352;2023-02-14T08:07:19;0.30;99.90
25170;DHT22;13129;48.012;10.352;2023-02-14T08:09:44;0.60;99.90
25170;DHT22;13129;48.012;10.352;2023-02-14T08:12:10;0.90;99.90
25170;DHT22;13129;48.012;10.352;2023-02-14T08:14:54;1.20;99.90
25170;DHT22;13129;48.012;10.352;2023-02-14T08:17:40;1.80;99.90
25170;DHT22;13129;48.012;10.352;2023-02-14T08:20:06;2.20;99.90
25170;DHT22;13129;48.012;10.352;2023-02-14T08:22:32;3.20;99.90
25170;DHT22;13129;48.012;10.352;2023-02-14T08:25:00;4.10;99.90
25170;DHT22;13129;48.012;10.352;2023-02-14T08:27:26;5.00;99.90
25170;DHT22;13129;48.012;10.352;2023-02-14T08:29:52;6.30;99.90
25170;DHT22;13129;48.012;10.352;2023-02-14T08:32:17;7.60;99.90
25170;DHT22;13129;48.012;10.352;2023-02-14T08:34:45;7.60;99.90
25170;DHT22;13129;48.012;10.352;2023-02-14T08:37:11;7.20;99.90
25170;DHT22;13129;48.012;10.352;2023-02-14T08:39:38;6.60;99.90
25170;DHT22;13129;48.012;10.352;2023-02-14T08:42:04;5.90;99.90
25170;DHT22;13129;48.012;10.352;2023-02-14T08:44:30;5.90;99.90
25170;DHT22;13129;48.012;10.352;2023-02-14T08:46:55;5.50;99.90
25170;DHT22;13129;48.012;10.352;2023-02-14T08:49:21;5.30;99.90
25170;DHT22;13129;48.012;10.352;2023-02-14T08:51:47;5.60;99.90
25170;DHT22;13129;48.012;10.352;2023-02-14T08:54:13;5.80;99.90
25170;DHT22;13129;48.012;10.352;2023-02-14T08:56:39;6.30;99.90
25170;DHT22;13129;48.012;10.352;2023-02-14T08:59:05;7.20;99.90
25170;DHT22;13129;48.012;10.352;2023-02-14T09:01:31;8.80;99.90
25170;DHT22;13129;48.012;10.352;2023-02-14T09:03:56;10.40;99.90
25170;DHT22;13129;48.012;10.352;2023-02-14T09:06:22;11.10;99.90
25170;DHT22;13129;48.012;10.352;2023-02-14T09:08:48;11.60;99.90
25170;DHT22;13129;48.012;10.352;2023-02-14T09:11:17;11.90;99.90
25170;DHT22;13129;48.012;10.352;2023-02-14T09:13:44;12.00;99.90
25170;DHT22;13129;48.012;10.352;2023-02-14T09:16:11;12.20;99.90
25170;DHT22;13129;48.012;10.352;2023-02-14T09:18:38;12.70;99.90
25170;DHT22;13129;48.012;10.352;2023-02-14T09:21:14;13.40;97.70
25170;DHT22;13129;48.012;10.352;2023-02-14T09:23:40;14.00;95.10
25170;DHT22;13129;48.012;10.352;2023-02-14T09:26:07;14.30;93.60
25170;DHT22;13129;48.012;10.352;2023-02-14T09:28:34;14.80;92.50
25170;DHT22;13129;48.012;10.352;2023-02-14T09:31:11;15.20;91.60
25170;DHT22;13129;48.012;10.352;2023-02-14T09:33:38;15.20;86.80
25170;DHT22;13129;48.012;10.352;2023-02-14T09:36:03;15.80;84.70
25170;DHT22;13129;48.012;10.352;2023-02-14T09:38:48;16.00;82.60
25170;DHT22;13129;48.012;10.352;2023-02-14T09:44:01;17.00;76.30
25170;DHT22;13129;48.012;10.352;2023-02-14T09:46:41;18.30;75.40
25170;DHT22;13129;48.012;10.352;2023-02-14T09:49:12;19.70;72.40
25170;DHT22;13129;48.012;10.352;2023-02-14T09:51:45;19.20;66.50
25170;DHT22;13129;48.012;10.352;2023-02-14T09:54:15;18.90;65.70
25170;DHT22;13129;48.012;10.352;2023-02-14T09:59:42;19.30;62.40
25170;DHT22;13129;48.012;10.352;2023-02-14T10:05:05;19.10;62.10
25170;DHT22;13129;48.012;10.352;2023-02-14T10:08:15;19.20;62.30
25170;DHT22;13129;48.012;10.352;2023-02-14T10:10:46;19.60;62.10
25170;DHT22;13129;48.012;10.352;2023-02-14T10:13:16;20.20;59.50
25170;DHT22;13129;48.012;10.352;2023-02-14T10:15:49;20.20;60.10
25170;DHT22;13129;48.012;10.352;2023-02-14T10:18:41;20.10;58.90
25170;DHT22;13129;48.012;10.352;2023-02-14T10:21:14;19.50;59.00
25170;DHT22;13129;48.012;10.352;2023-02-14T10:23:50;19.30;60.20
25170;DHT22;13129;48.012;10.352;2023-02-14T10:26:32;19.60;60.30
25170;DHT22;13129;48.012;10.352;2023-02-14T10:28:59;19.90;58.30
25170;DHT22;13129;48.012;10.352;2023-02-14T10:31:33;19.90;58.40
25170;DHT22;13129;48.012;10.352;2023-02-14T10:34:19;21.00;56.90
25170;DHT22;13129;48.012;10.352;2023-02-14T10:39:56;22.90;54.80
25170;DHT22;13129;48.012;10.352;2023-02-14T10:48:04;23.10;51.40
25170;DHT22;13129;48.012;10.352;2023-02-14T10:53:37;24.00;49.60
25170;DHT22;13129;48.012;10.352;2023-02-14T10:56:07;24.20;50.30
25170;DHT22;13129;48.012;10.352;2023-02-14T10:58:38;23.50;49.20
25170;DHT22;13129;48.012;10.352;2023-02-14T11:01:11;23.70;49.60
25170;DHT22;13129;48.012;10.352;2023-02-14T11:03:39;24.20;49.60
25170;DHT22;13129;48.012;10.352;2023-02-14T11:06:07;24.60;48.80
25170;DHT22;13129;48.012;10.352;2023-02-14T11:08:38;24.40;49.10
25170;DHT22;13129;48.012;10.352;2023-02-14T11:11:21;24.10;48.80
25170;DHT22;13129;48.012;10.352;2023-02-14T11:13:48;24.60;48.00
25170;DHT22;13129;48.012;10.352;2023-02-14T11:16:35;23.90;48.30
25170;DHT22;13129;48.012;10.352;2023-02-14T11:19:22;22.90;49.20
25170;DHT22;13129;48.012;10.352;2023-02-14T11:21:50;23.20;50.10
25170;DHT22;13129;48.012;10.352;2023-02-14T11:26:51;22.90;49.20
25170;DHT22;13129;48.012;10.352;2023-02-14T11:29:29;23.30;48.40
25170;DHT22;13129;48.012;10.352;2023-02-14T11:31:56;23.50;48.30
25170;DHT22;13129;48.012;10.352;2023-02-14T11:34:38;23.50;48.40
25170;DHT22;13129;48.012;10.352;2023-02-14T11:37:18;23.60;48.90
25170;DHT22;13129;48.012;10.352;2023-02-14T11:39:50;23.90;48.60
25170;DHT22;13129;48.012;10.352;2023-02-14T11:42:43;24.00;48.40
25170;DHT22;13129;48.012;10.352;2023-02-14T11:51:12;23.10;48.60
25170;DHT22;13129;48.012;10.352;2023-02-14T11:53:45;21.80;50.60
25170;DHT22;13129;48.012;10.352;2023-02-14T11:56:13;19.40;53.60
25170;DHT22;13129;48.012;10.352;2023-02-14T11:58:40;17.50;56.60
25170;DHT22;13129;48.012;10.352;2023-02-14T12:01:13;16.00;59.90
25170;DHT22;13129;48.012;10.352;2023-02-14T12:03:47;14.50;64.00
25170;DHT22;13129;48.012;10.352;2023-02-14T12:06:25;13.50;67.40
25170;DHT22;13129;48.012;10.352;2023-02-14T12:09:23;12.90;70.50
25170;DHT22;13129;48.012;10.352;2023-02-14T12:11:59;12.30;72.90
25170;DHT22;13129;48.012;10.352;2023-02-14T12:14:29;11.90;73.50
25170;DHT22;13129;48.012;10.352;2023-02-14T12:22:22;11.30;77.70
25170;DHT22;13129;48.012;10.352;2023-02-14T12:25:10;11.30;77.90
25170;DHT22;13129;48.012;10.352;2023-02-14T12:28:04;11.20;79.50
25170;DHT22;13129;48.012;10.352;2023-02-14T12:30:39;11.30;78.60
25170;DHT22;13129;48.012;10.352;2023-02-14T12:33:17;11.20;78.90
25170;DHT22;13129;48.012;10.352;2023-02-14T12:38:54;11.20;79.50
25170;DHT22;13129;48.012;10.352;2023-02-14T12:42:04;11.20;79.50
25170;DHT22;13129;48.012;10.352;2023-02-14T12:44:48;11.10;79.80
25170;DHT22;13129;48.012;10.352;2023-02-14T12:53:19;11.00;81.70
25170;DHT22;13129;48.012;10.352;2023-02-14T13:04:33;10.80;82.90
25170;DHT22;13129;48.012;10.352;2023-02-14T13:10:17;10.80;83.40
25170;DHT22;13129;48.012;10.352;2023-02-14T13:12:52;10.80;83.10
25170;DHT22;13129;48.012;10.352;2023-02-14T13:20:55;10.50;84.00
25170;DHT22;13129;48.012;10.352;2023-02-14T13:23:37;10.50;84.20
25170;DHT22;13129;48.012;10.352;2023-02-14T13:26:29;10.50;84.60
25170;DHT22;13129;48.012;10.352;2023-02-14T13:29:02;10.50;84.90
25170;DHT22;13129;48.012;10.352;2023-02-14T13:31:28;10.50;85.20
25170;DHT22;13129;48.012;10.352;2023-02-14T13:33:59;10.50;85.60
25170;DHT22;13129;48.012;10.352;2023-02-14T13:36:28;10.50;85.80
25170;DHT22;13129;48.012;10.352;2023-02-14T13:38:55;10.50;86.40
25170;DHT22;13129;48.012;10.352;2023-02-14T13:41:23;10.40;87.00
25170;DHT22;13129;48.012;10.352;2023-02-14T13:49:05;10.30;87.80
25170;DHT22;13129;48.012;10.352;2023-02-14T13:51:53;10.30;88.00
25170;DHT22;13129;48.012;10.352;2023-02-14T13:54:34;10.20;88.10
25170;DHT22;13129;48.012;10.352;2023-02-14T13:57:33;10.20;88.00
25170;DHT22;13129;48.012;10.352;2023-02-14T14:10:52;10.10;88.80
25170;DHT22;13129;48.012;10.352;2023-02-14T14:22:00;10.00;89.30
25170;DHT22;13129;48.012;10.352;2023-02-14T14:24:30;9.90;89.40
25170;DHT22;13129;48.012;10.352;2023-02-14T14:27:00;9.90;89.50
25170;DHT22;13129;48.012;10.352;2023-02-14T14:29:38;9.80;89.40
25170;DHT22;13129;48.012;10.352;2023-02-14T14:32:10;9.80;89.30
25170;DHT22;13129;48.012;10.352;2023-02-14T14:34:57;9.80;89.70
25170;DHT22;13129;48.012;10.352;2023-02-14T14:37:34;9.70;89.60
25170;DHT22;13129;48.012;10.352;2023-02-14T14:40:05;9.70;89.60
25170;DHT22;13129;48.012;10.352;2023-02-14T14:42:38;9.70;89.70
25170;DHT22;13129;48.012;10.352;2023-02-14T14:45:22;9.70;89.60
25170;DHT22;13129;48.012;10.352;2023-02-14T14:47:50;9.60;89.50
25170;DHT22;13129;48.012;10.352;2023-02-14T14:50:23;9.60;89.50
25170;DHT22;13129;48.012;10.352;2023-02-14T14:52:55;9.50;89.70
25170;DHT22;13129;48.012;10.352;2023-02-14T14:55:29;9.50;89.80
25170;DHT22;13129;48.012;10.352;2023-02-14T14:58:01;9.50;90.20
25170;DHT22;13129;48.012;10.352;2023-02-14T15:00:36;9.40;90.40
25170;DHT22;13129;48.012;10.352;2023-02-14T15:03:22;9.40;90.70
25170;DHT22;13129;48.012;10.352;2023-02-14T15:05:50;9.30;91.20
25170;DHT22;13129;48.012;10.352;2023-02-14T15:11:12;9.20;92.30
25170;DHT22;13129;48.012;10.352;2023-02-14T15:13:59;9.10;92.80
25170;DHT22;13129;48.012;10.352;2023-02-14T15:16:48;9.00;93.20
25170;DHT22;13129;48.012;10.352;2023-02-14T15:19:25;9.00;93.50
25170;DHT22;13129;48.012;10.352;2023-02-14T15:22:02;8.90;93.70
25170;DHT22;13129;48.012;10.352;2023-02-14T15:24:29;8.80;94.00
25170;DHT22;13129;48.012;10.352;2023-02-14T15:26:56;8.70;94.20
25170;DHT22;13129;48.012;10.352;2023-02-14T15:29:30;8.70;94.50
25170;DHT22;13129;48.012;10.352;2023-02-14T15:31:57;8.50;94.70
25170;DHT22;13129;48.012;10.352;2023-02-14T15:34:29;8.50;94.90
25170;DHT22;13129;48.012;10.352;2023-02-14T15:36:56;8.40;95.10
25170;DHT22;13129;48.012;10.352;2023-02-14T15:39:33;8.30;95.30
25170;DHT22;13129;48.012;10.352;2023-02-14T15:41:59;8.20;95.40
25170;DHT22;13129;48.012;10.352;2023-02-14T15:44:25;8.20;95.60
25170;DHT22;13129;48.012;10.352;2023-02-14T15:47:02;8.10;95.80
25170;DHT22;13129;48.012;10.352;2023-02-14T15:49:33;8.00;96.00
25170;DHT22;13129;48.012;10.352;2023-02-14T15:52:02;7.90;96.30
25170;DHT22;13129;48.012;10.352;2023-02-14T15:54:35;7.80;96.50
25170;DHT22;13129;48.012;10.352;2023-02-14T15:57:02;7.70;96.70
25170;DHT22;13129;48.012;10.352;2023-02-14T15:59:32;7.50;96.90
25170;DHT22;13129;48.012;10.352;2023-02-14T16:04:31;7.30;97.40
25170;DHT22;13129;48.012;10.352;2023-02-14T16:07:26;7.20;97.70
25170;DHT22;13129;48.012;10.352;2023-02-14T16:10:28;7.10;97.90
25170;DHT22;13129;48.012;10.352;2023-02-14T16:15:38;6.80;98.60
25170;DHT22;13129;48.012;10.352;2023-02-14T16:21:23;6.50;99.40
25170;DHT22;13129;48.012;10.352;2023-02-14T16:24:22;6.40;99.90
25170;DHT22;13129;48.012;10.352;2023-02-14T16:26:48;6.20;99.90
25170;DHT22;13129;48.012;10.352;2023-02-14T16:29:15;6.10;99.90
25170;DHT22;13129;48.012;10.352;2023-02-14T16:31:47;5.90;99.90
25170;DHT22;13129;48.012;10.352;2023-02-14T16:34:13;5.70;99.90
25170;DHT22;13129;48.012;10.352;2023-02-14T16:36:40;5.50;99.90
25170;DHT22;13129;48.012;10.352;2023-02-14T16:39:18;5.40;99.90
25170;DHT22;13129;48.012;10.352;2023-02-14T16:41:46;5.20;99.90
25170;DHT22;13129;48.012;10.352;2023-02-14T16:44:14;5.20;99.90
25170;DHT22;13129;48.012;10.352;2023-02-14T16:46:40;5.00;99.90
25170;DHT22;13129;48.012;10.352;2023-02-14T16:49:06;4.90;99.90
25170;DHT22;13129;48.012;10.352;2023-02-14T16:51:33;4.70;99.90
25170;DHT22;13129;48.012;10.352;2023-02-14T16:54:03;4.60;99.90
25170;DHT22;13129;48.012;10.352;2023-02-14T16:56:44;4.40;99.90
25170;DHT22;13129;48.012;10.352;2023-02-14T16:59:11;4.30;99.90
25170;DHT22;13129;48.012;10.352;2023-02-14T17:01:38;4.20;99.90
25170;DHT22;13129;48.012;10.352;2023-02-14T17:04:04;4.10;99.90
25170;DHT22;13129;48.012;10.352;2023-02-14T17:06:32;4.00;99.90
25170;DHT22;13129;48.012;10.352;2023-02-14T17:09:02;3.90;99.90
25170;DHT22;13129;48.012;10.352;2023-02-14T17:11:29;3.90;99.90
25170;DHT22;13129;48.012;10.352;2023-02-14T17:13:55;3.80;99.90
25170;DHT22;13129;48.012;10.352;2023-02-14T17:16:21;3.70;99.90
25170;DHT22;13129;48.012;10.352;2023-02-14T17:18:49;3.60;99.90
25170;DHT22;13129;48.012;10.352;2023-02-14T17:21:20;3.40;99.90
25170;DHT22;13129;48.012;10.352;2023-02-14T17:23:46;3.10;99.90
25170;DHT22;13129;48.012;10.352;2023-02-14T17:26:12;2.80;99.90
25170;DHT22;13129;48.012;10.352;2023-02-14T17:28:38;2.60;99.90
25170;DHT22;13129;48.012;10.352;2023-02-14T17:31:04;2.50;99.90
25170;DHT22;13129;48.012;10.352;2023-02-14T17:33:33;2.50;99.90
25170;DHT22;13129;48.012;10.352;2023-02-14T17:36:10;2.40;99.90
25170;DHT22;13129;48.012;10.352;2023-02-14T17:38:36;2.40;99.90
25170;DHT22;13129;48.012;10.352;2023-02-14T17:41:23;2.50;99.90
25170;DHT22;13129;48.012;10.352;2023-02-14T17:43:50;2.50;99.90
25170;DHT22;13129;48.012;10.352;2023-02-14T17:46:17;2.40;99.90
25170;DHT22;13129;48.012;10.352;2023-02-14T17:48:44;2.30;99.90
25170;DHT22;13129;48.012;10.352;2023-02-14T17:51:11;2.10;99.90
25170;DHT22;13129;48.012;10.352;2023-02-14T17:53:37;1.90;99.90
25170;DHT22;13129;48.012;10.352;2023-02-14T17:56:10;1.70;99.90
25170;DHT22;13129;48.012;10.352;2023-02-14T17:58:37;1.60;99.90
25170;DHT22;13129;48.012;10.352;2023-02-14T18:01:08;1.50;99.90
25170;DHT22;13129;48.012;10.352;2023-02-14T18:03:35;1.50;99.90
25170;DHT22;13129;48.012;10.352;2023-02-14T18:06:01;1.40;99.90
25170;DHT22;13129;48.012;10.352;2023-02-14T18:08:29;1.30;99.90
25170;DHT22;13129;48.012;10.352;2023-02-14T18:10:55;1.40;99.90
25170;DHT22;13129;48.012;10.352;2023-02-14T18:13:22;1.30;99.90
25170;DHT22;13129;48.012;10.352;2023-02-14T18:15:49;1.40;99.90
25170;DHT22;13129;48.012;10.352;2023-02-14T18:18:16;1.40;99.90
25170;DHT22;13129;48.012;10.352;2023-02-14T18:20:51;1.40;99.90
25170;DHT22;13129;48.012;10.352;2023-02-14T18:23:17;1.50;99.90
25170;DHT22;13129;48.012;10.352;2023-02-14T18:25:48;1.40;99.90
25170;DHT22;13129;48.012;10.352;2023-02-14T18:28:14;1.50;99.90
25170;DHT22;13129;48.012;10.352;2023-02-14T18:30:39;1.50;99.90
25170;DHT22;13129;48.012;10.352;2023-02-14T18:33:05;1.40;99.90
25170;DHT22;13129;48.012;10.352;2023-02-14T18:35:30;1.50;99.90
25170;DHT22;13129;48.012;10.352;2023-02-14T18:37:56;1.50;99.90
25170;DHT22;13129;48.012;10.352;2023-02-14T18:40:22;1.40;99.90
25170;DHT22;13129;48.012;10.352;2023-02-14T18:42:47;1.30;99.90
25170;DHT22;13129;48.012;10.352;2023-02-14T18:45:13;1.20;99.90
25170;DHT22;13129;48.012;10.352;2023-02-14T18:47:38;1.00;99.90
25170;DHT22;13129;48.012;10.352;2023-02-14T18:50:05;0.90;99.90
25170;DHT22;13129;48.012;10.352;2023-02-14T18:52:30;0.70;99.90
25170;DHT22;13129;48.012;10.352;2023-02-14T18:54:56;0.60;99.90
25170;DHT22;13129;48.012;10.352;2023-02-14T18:57:23;0.50;99.90
25170;DHT22;13129;48.012;10.352;2023-02-14T18:59:49;0.50;99.90
25170;DHT22;13129;48.012;10.352;2023-02-14T19:02:15;0.60;99.90
25170;DHT22;13129;48.012;10.352;2023-02-14T19:04:40;0.40;99.90
25170;DHT22;13129;48.012;10.352;2023-02-14T19:07:06;0.40;99.90
25170;DHT22;13129;48.012;10.352;2023-02-14T19:09:32;0.30;99.90
25170;DHT22;13129;48.012;10.352;2023-02-14T19:12:05;0.20;99.90
25170;DHT22;13129;48.012;10.352;2023-02-14T19:14:31;0.00;99.90
25170;DHT22;13129;48.012;10.352;2023-02-14T19:16:56;-0.10;99.90
25170;DHT22;13129;48.012;10.352;2023-02-14T19:19:22;-0.30;99.90
25170;DHT22;13129;48.012;10.352;2023-02-14T19:21:49;-0.50;99.90
25170;DHT22;13129;48.012;10.352;2023-02-14T19:24:15;-0.60;99.90
25170;DHT22;13129;48.012;10.352;2023-02-14T19:26:42;-0.70;99.90
25170;DHT22;13129;48.012;10.352;2023-02-14T19:29:13;-0.70;99.90
25170;DHT22;13129;48.012;10.352;2023-02-14T19:31:42;-0.80;99.90
25170;DHT22;13129;48.012;10.352;2023-02-14T19:34:17;-0.80;99.90
25170;DHT22;13129;48.012;10.352;2023-02-14T19:36:44;-0.80;99.90
25170;DHT22;13129;48.012;10.352;2023-02-14T19:39:10;-0.90;99.90
25170;DHT22;13129;48.012;10.352;2023-02-14T19:41:37;-0.90;99.90
25170;DHT22;13129;48.012;10.352;2023-02-14T19:44:04;-0.90;99.90
25170;DHT22;13129;48.012;10.352;2023-02-14T19:46:31;-1.00;99.90
25170;DHT22;13129;48.012;10.352;2023-02-14T19:48:58;-0.90;99.90
25170;DHT22;13129;48.012;10.352;2023-02-14T19:51:27;-0.90;99.90
25170;DHT22;13129;48.012;10.352;2023-02-14T19:53:54;-0.90;99.90
25170;DHT22;13129;48.012;10.352;2023-02-14T19:56:22;-0.80;99.90
25170;DHT22;13129;48.012;10.352;2023-02-14T19:58:48;-0.80;99.90
25170;DHT22;13129;48.012;10.352;2023-02-14T20:03:51;-0.80;99.90
25170;DHT22;13129;48.012;10.352;2023-02-14T20:06:18;-0.90;99.90
25170;DHT22;13129;48.012;10.352;2023-02-14T20:08:44;-0.90;99.90
25170;DHT22;13129;48.012;10.352;2023-02-14T20:11:29;-0.90;99.90
25170;DHT22;13129;48.012;10.352;2023-02-14T20:13:55;-1.00;99.90
25170;DHT22;13129;48.012;10.352;2023-02-14T20:16:23;-1.00;99.90
25170;DHT22;13129;48.012;10.352;2023-02-14T20:18:49;-1.00;99.90
25170;DHT22;13129;48.012;10.352;2023-02-14T20:21:19;-1.10;99.90
25170;DHT22;13129;48.012;10.352;2023-02-14T20:23:49;-1.20;99.90
25170;DHT22;13129;48.012;10.352;2023-02-14T20:26:15;-1.30;99.90
25170;DHT22;13129;48.012;10.352;2023-02-14T20:28:41;-1.40;99.90
25170;DHT22;13129;48.012;10.352;2023-02-14T20:31:12;-1.40;99.90
25170;DHT22;13129;48.012;10.352;2023-02-14T20:33:39;-1.50;99.90
25170;DHT22;13129;48.012;10.352;2023-02-14T20:36:06;-1.50;99.90
25170;DHT22;13129;48.012;10.352;2023-02-14T20:38:33;-1.50;99.90
25170;DHT22;13129;48.012;10.352;2023-02-14T20:41:07;-1.60;99.90
25170;DHT22;13129;48.012;10.352;2023-02-14T20:43:34;-1.60;99.90
25170;DHT22;13129;48.012;10.352;2023-02-14T20:46:00;-1.60;99.90
25170;DHT22;13129;48.012;10.352;2023-02-14T20:48:27;-1.60;99.90
25170;DHT22;13129;48.012;10.352;2023-02-14T20:50:54;-1.60;99.90
25170;DHT22;13129;48.012;10.352;2023-02-14T20:53:19;-1.60;99.90
25170;DHT22;13129;48.012;10.352;2023-02-14T20:55:49;-1.70;99.90
25170;DHT22;13129;48.012;10.352;2023-02-14T20:58:15;-1.70;99.90
25170;DHT22;13129;48.012;10.352;2023-02-14T21:00:41;-1.70;99.90
25170;DHT22;13129;48.012;10.352;2023-02-14T21:03:06;-1.70;99.90
25170;DHT22;13129;48.012;10.352;2023-02-14T21:05:32;-1.60;99.90
25170;DHT22;13129;48.012;10.352;2023-02-14T21:07:58;-1.50;99.90
25170;DHT22;13129;48.012;10.352;2023-02-14T21:10:23;-1.50;99.90
25170;DHT22;13129;48.012;10.352;2023-02-14T21:12:49;-1.40;99.90
25170;DHT22;13129;48.012;10.352;2023-02-14T21:15:17;-1.40;99.90
25170;DHT22;13129;48.012;10.352;2023-02-14T21:17:43;-1.40;99.90
25170;DHT22;13129;48.012;10.352;2023-02-14T21:20:09;-1.40;99.90
25170;DHT22;13129;48.012;10.352;2023-02-14T21:22:35;-1.50;99.90
25170;DHT22;13129;48.012;10.352;2023-02-14T21:25:01;-1.60;99.90
25170;DHT22;13129;48.012;10.352;2023-02-14T21:27:27;-1.70;99.90
25170;DHT22;13129;48.012;10.352;2023-02-14T21:29:53;-1.80;99.90
25170;DHT22;13129;48.012;10.352;2023-02-14T21:32:18;-1.80;99.90
25170;DHT22;13129;48.012;10.352;2023-02-14T21:34:44;-1.90;99.90
25170;DHT22;13129;48.012;10.352;2023-02-14T21:37:10;-2.00;99.90
25170;DHT22;13129;48.012;10.352;2023-02-14T21:39:35;-2.00;99.90
25170;DHT22;13129;48.012;10.352;2023-02-14T21:42:03;-2.00;99.90
25170;DHT22;13129;48.012;10.352;2023-02-14T21:44:29;-2.00;99.90
25170;DHT22;13129;48.012;10.352;2023-02-14T21:47:13;-1.90;99.90